createdAt,value
2023-04-16T00:01:36.592Z,100539.28
2023-04-16T00:04:12.173Z,100537.34
2023-04-16T00:06:45.336Z,100547.45
2023-04-16T00:09:18.862Z,100543.81
2023-04-16T00:11:52.684Z,100546.05
2023-04-16T00:14:26.258Z,100549.28
2023-04-16T00:16:59.943Z,100551.70
2023-04-16T00:19:33.621Z,100553.23
2023-04-16T00:22:06.786Z,100553.87
2023-04-16T00:24:40.270Z,100554.59
2023-04-16T00:27:13.870Z,100553.44
2023-04-16T00:29:47.747Z,100553.02
2023-04-16T00:32:21.421Z,100553.73
2023-04-16T00:34:55.144Z,100557.67
2023-04-16T00:37:28.981Z,100554.89
2023-04-16T00:40:02.350Z,100557.31
2023-04-16T00:42:37.214Z,100551.95
2023-04-16T00:45:13.322Z,100557.95
2023-04-16T00:47:47.163Z,100558.02
2023-04-16T00:50:20.598Z,100560.69
2023-04-16T00:52:54.348Z,100552.14
2023-04-16T00:55:27.775Z,100551.23
2023-04-16T00:58:01.339Z,100552.66
2023-04-16T01:00:34.937Z,100553.94
2023-04-16T01:03:08.566Z,100552.78
2023-04-16T01:05:42.397Z,100548.33
2023-04-16T01:08:20.593Z,100559.28
2023-04-16T01:10:54.019Z,100556.26
2023-04-16T01:13:27.706Z,100557.05
2023-04-16T01:16:01.401Z,100551.53
2023-04-16T01:18:35.718Z,100555.73
2023-04-16T01:21:09.511Z,100553.94
2023-04-16T01:23:42.945Z,100551.20
2023-04-16T01:26:16.445Z,100546.75
2023-04-16T01:28:49.636Z,100555.36
2023-04-16T01:31:23.226Z,100545.04
2023-04-16T01:34:04.284Z,100548.41
2023-04-16T01:36:41.116Z,100545.75
2023-04-16T01:39:16.607Z,100550.03
2023-04-16T01:41:50.411Z,100544.88
2023-04-16T01:44:24.041Z,100556.07
2023-04-16T01:46:57.832Z,100548.33
2023-04-16T01:49:32.386Z,100545.95
2023-04-16T01:52:07.994Z,100549.33
2023-04-16T01:54:41.619Z,100551.91
2023-04-16T01:57:15.544Z,100550.20
2023-04-16T01:59:49.170Z,100547.53
2023-04-16T02:02:24.734Z,100548.25
2023-04-16T02:04:58.972Z,100551.63
2023-04-16T02:07:32.632Z,100545.38
2023-04-16T02:10:07.735Z,100546.20
2023-04-16T02:12:42.560Z,100540.93
2023-04-16T02:15:16.764Z,100548.50
2023-04-16T02:17:53.748Z,100554.45
2023-04-16T02:20:29.166Z,100553.49
2023-04-16T02:23:04.120Z,100551.80
2023-04-16T02:25:42.120Z,100555.87
2023-04-16T02:28:18.001Z,100550.34
2023-04-16T02:30:52.328Z,100560.48
2023-04-16T02:33:26.956Z,100551.95
2023-04-16T02:36:02.437Z,100555.50
2023-04-16T02:38:37.678Z,100555.33
2023-04-16T02:41:11.666Z,100557.11
2023-04-16T02:43:45.125Z,100554.53
2023-04-16T02:46:18.672Z,100551.08
2023-04-16T02:48:52.275Z,100547.50
2023-04-16T02:51:26.263Z,100548.38
2023-04-16T02:53:59.886Z,100560.66
2023-04-16T02:56:33.139Z,100561.73
2023-04-16T02:59:07.025Z,100560.16
2023-04-16T03:01:40.570Z,100559.86
2023-04-16T03:04:14.412Z,100565.81
2023-04-16T03:06:47.622Z,100569.14
2023-04-16T03:09:21.205Z,100566.44
2023-04-16T03:11:54.670Z,100565.64
2023-04-16T03:14:28.495Z,100565.81
2023-04-16T03:17:02.249Z,100562.98
2023-04-16T03:19:36.033Z,100563.69
2023-04-16T03:22:09.735Z,100565.39
2023-04-16T03:24:43.330Z,100568.67
2023-04-16T03:27:16.958Z,100561.73
2023-04-16T03:29:51.028Z,100570.34
2023-04-16T03:32:24.485Z,100567.67
2023-04-16T03:34:57.940Z,100571.95
2023-04-16T03:37:32.123Z,100566.88
2023-04-16T03:40:07.198Z,100565.97
2023-04-16T03:42:41.233Z,100553.20
2023-04-16T03:45:15.378Z,100568.55
2023-04-16T03:47:53.642Z,100561.81
2023-04-16T03:50:28.858Z,100560.31
2023-04-16T03:53:02.551Z,100566.44
2023-04-16T03:55:36.762Z,100564.23
2023-04-16T03:58:10.748Z,100573.14
2023-04-16T04:00:45.533Z,100571.72
2023-04-16T04:03:20.896Z,100570.30
2023-04-16T04:05:55.612Z,100573.26
2023-04-16T04:08:31.001Z,100570.14
2023-04-16T04:11:04.361Z,100567.30
2023-04-16T04:13:38.299Z,100572.98
2023-04-16T04:16:11.756Z,100576.18
2023-04-16T04:18:48.579Z,100575.91
2023-04-16T04:21:23.776Z,100564.42
2023-04-16T04:23:57.006Z,100568.52
2023-04-16T04:26:30.793Z,100565.80
2023-04-16T04:29:04.324Z,100567.94
2023-04-16T04:31:37.850Z,100566.89
2023-04-16T04:34:11.595Z,100565.78
2023-04-16T04:36:44.984Z,100557.88
2023-04-16T04:39:20.577Z,100565.43
2023-04-16T04:41:54.375Z,100558.56
2023-04-16T04:44:29.626Z,100555.95
2023-04-16T04:47:03.562Z,100560.52
2023-04-16T04:49:36.922Z,100559.70
2023-04-16T04:52:11.676Z,100558.75
2023-04-16T04:54:45.289Z,100560.92
2023-04-16T04:57:19.065Z,100551.81
2023-04-16T04:59:52.799Z,100558.86
2023-04-16T05:02:26.567Z,100554.34
2023-04-16T05:05:00.138Z,100553.97
2023-04-16T05:07:35.001Z,100556.98
2023-04-16T05:10:10.938Z,100555.27
2023-04-16T05:12:44.802Z,100550.16
2023-04-16T05:15:19.013Z,100557.86
2023-04-16T05:17:52.552Z,100557.70
2023-04-16T05:20:25.759Z,100557.31
2023-04-16T05:22:59.500Z,100556.61
2023-04-16T05:25:33.075Z,100554.48
2023-04-16T05:28:07.120Z,100554.77
2023-04-16T05:30:40.501Z,100552.97
2023-04-16T05:33:14.253Z,100545.84
2023-04-16T05:35:47.958Z,100551.81
2023-04-16T05:38:21.505Z,100548.98
2023-04-16T05:40:55.414Z,100547.72
2023-04-16T05:43:29.071Z,100544.33
2023-04-16T05:46:02.738Z,100535.23
2023-04-16T05:48:36.483Z,100542.82
2023-04-16T05:51:10.362Z,100540.42
2023-04-16T05:53:44.164Z,100543.14
2023-04-16T05:56:17.798Z,100554.50
2023-04-16T05:58:51.305Z,100539.13
2023-04-16T06:01:25.765Z,100542.58
2023-04-16T06:03:59.473Z,100547.39
2023-04-16T06:06:33.159Z,100541.53
2023-04-16T06:09:06.690Z,100537.55
2023-04-16T06:11:40.169Z,100536.38
2023-04-16T06:14:13.945Z,100528.02
2023-04-16T06:16:47.387Z,100524.79
2023-04-16T06:19:21.587Z,100526.01
2023-04-16T06:21:56.409Z,100520.17
2023-04-16T06:24:29.978Z,100515.89
2023-04-16T06:27:04.039Z,100514.11
2023-04-16T06:29:41.616Z,100510.25
2023-04-16T06:32:14.268Z,100500.95
2023-04-16T06:34:49.300Z,100523.02
2023-04-16T06:37:22.747Z,100520.19
2023-04-16T06:39:56.400Z,100522.94
2023-04-16T06:42:29.890Z,100518.83
2023-04-16T06:45:03.207Z,100506.02
2023-04-16T06:47:37.085Z,100505.64
2023-04-16T06:50:12.609Z,100496.06
2023-04-16T06:52:46.352Z,100506.00
2023-04-16T06:55:20.584Z,100505.99
2023-04-16T06:57:53.946Z,100493.04
2023-04-16T07:00:27.347Z,100496.22
2023-04-16T07:03:02.591Z,100491.14
2023-04-16T07:05:36.225Z,100481.11
2023-04-16T07:10:54.003Z,100466.00
2023-04-16T07:13:27.869Z,100477.78
2023-04-16T07:16:02.714Z,100459.74
2023-04-16T07:18:36.618Z,100472.59
2023-04-16T07:21:10.264Z,100483.19
2023-04-16T07:23:44.803Z,100484.97
2023-04-16T07:26:18.426Z,100482.25
2023-04-16T07:28:52.255Z,100478.41
2023-04-16T07:31:25.585Z,100481.78
2023-04-16T07:33:59.168Z,100486.58
2023-04-16T07:36:32.562Z,100484.94
2023-04-16T07:39:06.570Z,100475.95
2023-04-16T07:41:41.277Z,100483.59
2023-04-16T07:44:16.516Z,100487.66
2023-04-16T07:46:50.384Z,100483.67
2023-04-16T07:49:23.962Z,100470.38
2023-04-16T07:51:59.358Z,100474.72
2023-04-16T07:54:36.002Z,100462.05
2023-04-16T07:57:09.669Z,100466.52
2023-04-16T07:59:43.079Z,100474.98
2023-04-16T08:02:17.806Z,100472.14
2023-04-16T08:04:51.304Z,100480.75
2023-04-16T08:07:25.041Z,100474.89
2023-04-16T08:09:58.727Z,100472.32
2023-04-16T08:12:32.493Z,100470.72
2023-04-16T08:15:07.529Z,100467.06
2023-04-16T08:17:43.528Z,100464.44
2023-04-16T08:20:19.119Z,100457.39
2023-04-16T08:22:52.039Z,100453.72
2023-04-16T08:25:26.015Z,100450.23
2023-04-16T08:27:59.624Z,100460.83
2023-04-16T08:30:33.432Z,100437.91
2023-04-16T08:33:14.003Z,100447.82
2023-04-16T08:35:53.653Z,100454.16
2023-04-16T08:38:31.174Z,100444.44
2023-04-16T08:41:09.145Z,100430.59
2023-04-16T08:43:45.942Z,100416.05
2023-04-16T08:46:21.382Z,100425.29
2023-04-16T08:48:57.108Z,100436.25
2023-04-16T08:51:33.343Z,100439.09
2023-04-16T08:54:09.098Z,100433.44
2023-04-16T08:56:43.996Z,100428.15
2023-04-16T08:59:18.142Z,100424.33
2023-04-16T09:02:00.801Z,100421.88
2023-04-16T09:04:36.130Z,100414.19
2023-04-16T09:07:11.428Z,100395.08
2023-04-16T09:09:47.270Z,100390.19
2023-04-16T09:12:20.865Z,100404.64
2023-04-16T09:14:59.884Z,100395.44
2023-04-16T09:17:36.412Z,100391.71
2023-04-16T09:20:12.738Z,100402.25
2023-04-16T09:22:46.635Z,100408.82
2023-04-16T09:25:21.954Z,100409.41
2023-04-16T09:27:55.764Z,100409.41
2023-04-16T09:30:30.871Z,100388.93
2023-04-16T09:33:20.482Z,100389.45
2023-04-16T09:35:57.640Z,100390.55
2023-04-16T09:38:48.521Z,100393.57
2023-04-16T09:41:23.721Z,100385.69
2023-04-16T09:44:04.854Z,100393.53
2023-04-16T09:46:43.354Z,100385.22
2023-04-16T09:49:44.396Z,100382.62
2023-04-16T09:52:54.474Z,100396.03
2023-04-16T09:55:34.038Z,100402.90
2023-04-16T09:58:07.763Z,100399.85
2023-04-16T10:00:43.687Z,100394.53
2023-04-16T10:03:18.139Z,100386.89
2023-04-16T10:05:54.213Z,100380.37
2023-04-16T10:08:30.673Z,100379.17
2023-04-16T10:11:05.099Z,100384.20
2023-04-16T10:13:38.542Z,100385.75
2023-04-16T10:16:12.740Z,100386.75
2023-04-16T10:18:47.729Z,100384.69
2023-04-16T10:21:27.171Z,100385.16
2023-04-16T10:26:44.561Z,100376.44
2023-04-16T10:32:01.332Z,100370.41
2023-04-16T10:37:18.810Z,100369.84
2023-04-16T10:39:54.011Z,100382.48
2023-04-16T10:42:28.513Z,100369.05
2023-04-16T10:45:04.394Z,100363.80
2023-04-16T10:50:24.415Z,100349.27
2023-04-16T10:53:23.871Z,100332.48
2023-04-16T10:56:13.868Z,100344.44
2023-04-16T10:58:47.341Z,100350.56
2023-04-16T11:01:22.164Z,100332.23
2023-04-16T11:03:55.701Z,100331.94
2023-04-16T11:06:30.033Z,100348.85
2023-04-16T11:09:05.918Z,100346.48
2023-04-16T11:11:41.332Z,100333.85
2023-04-16T11:14:15.578Z,100325.09
2023-04-16T11:16:49.149Z,100327.89
2023-04-16T11:19:22.636Z,100330.09
2023-04-16T11:21:56.329Z,100332.29
2023-04-16T11:27:17.064Z,100327.87
2023-04-16T11:29:59.039Z,100326.20
2023-04-16T11:32:35.815Z,100331.48
2023-04-16T11:35:16.804Z,100308.69
2023-04-16T11:37:50.016Z,100314.66
2023-04-16T11:40:23.709Z,100327.61
2023-04-16T11:42:58.053Z,100318.55
2023-04-16T11:45:32.427Z,100305.83
2023-04-16T11:48:09.910Z,100307.11
2023-04-16T11:53:24.285Z,100314.57
2023-04-16T11:55:57.891Z,100312.55
2023-04-16T11:58:31.427Z,100312.88
2023-04-16T12:01:05.858Z,100299.97
2023-04-16T12:03:46.028Z,100299.43
2023-04-16T12:06:19.870Z,100304.97
2023-04-16T12:08:53.883Z,100290.39
2023-04-16T12:11:41.860Z,100295.61
2023-04-16T12:14:18.044Z,100292.24
2023-04-16T12:16:55.646Z,100283.83
2023-04-16T12:19:29.269Z,100274.78
2023-04-16T12:22:03.876Z,100280.77
2023-04-16T12:24:38.389Z,100275.77
2023-04-16T12:27:12.028Z,100259.59
2023-04-16T12:29:45.832Z,100264.14
2023-04-16T12:32:25.296Z,100273.34
2023-04-16T12:34:58.882Z,100261.58
2023-04-16T12:37:33.177Z,100261.47
2023-04-16T12:40:08.881Z,100256.06
2023-04-16T12:42:44.539Z,100254.86
2023-04-16T12:45:18.162Z,100247.46
2023-04-16T12:53:32.662Z,100237.55
2023-04-16T12:56:14.644Z,100229.73
2023-04-16T12:58:50.234Z,100228.88
2023-04-16T13:01:24.611Z,100230.73
2023-04-16T13:04:04.318Z,100241.56
2023-04-16T13:06:41.954Z,100224.32
2023-04-16T13:09:21.008Z,100231.45
2023-04-16T13:11:55.475Z,100227.19
2023-04-16T13:14:28.775Z,100221.91
2023-04-16T13:17:02.286Z,100207.50
2023-04-16T13:19:39.676Z,100224.23
2023-04-16T13:22:13.102Z,100221.70
2023-04-16T13:24:46.640Z,100212.08
2023-04-16T13:27:20.555Z,100210.56
2023-04-16T13:29:53.922Z,100210.58
2023-04-16T13:32:27.559Z,100209.50
2023-04-16T13:35:01.122Z,100213.06
2023-04-16T13:37:36.127Z,100214.47
2023-04-16T13:40:11.748Z,100197.53
2023-04-16T13:42:46.787Z,100190.69
2023-04-16T13:45:21.223Z,100185.96
2023-04-16T13:47:56.407Z,100194.27
2023-04-16T13:50:30.259Z,100184.08
2023-04-16T13:53:03.658Z,100185.52
2023-04-16T13:55:37.453Z,100184.47
2023-04-16T13:58:14.745Z,100184.31
2023-04-16T14:00:48.572Z,100191.80
2023-04-16T14:03:22.420Z,100195.72
2023-04-16T14:05:56.134Z,100200.56
2023-04-16T14:08:30.627Z,100191.66
2023-04-16T14:11:06.039Z,100193.18
2023-04-16T14:13:42.964Z,100201.73
2023-04-16T14:16:19.283Z,100192.63
2023-04-16T14:18:54.418Z,100199.26
2023-04-16T14:21:28.942Z,100192.45
2023-04-16T14:24:02.849Z,100208.99
2023-04-16T14:26:36.732Z,100185.00
2023-04-16T14:29:11.650Z,100189.59
2023-04-16T14:31:46.919Z,100188.92
2023-04-16T14:34:21.393Z,100186.42
2023-04-16T14:36:55.086Z,100188.17
2023-04-16T14:39:29.215Z,100183.67
2023-04-16T14:42:04.561Z,100180.81
2023-04-16T14:44:38.935Z,100200.48
2023-04-16T14:47:15.874Z,100176.59
2023-04-16T14:49:49.977Z,100183.45
2023-04-16T14:52:24.099Z,100177.98
2023-04-16T14:55:00.414Z,100182.76
2023-04-16T14:57:34.920Z,100184.62
2023-04-16T15:00:12.128Z,100181.30
2023-04-16T15:02:50.393Z,100184.03
2023-04-16T15:08:12.691Z,100180.68
2023-04-16T15:10:46.387Z,100176.34
2023-04-16T15:13:20.246Z,100177.23
2023-04-16T15:15:54.580Z,100173.72
2023-04-16T15:18:29.355Z,100179.87
2023-04-16T15:21:03.122Z,100170.19
2023-04-16T15:23:36.901Z,100175.39
2023-04-16T15:26:10.739Z,100172.61
2023-04-16T15:28:44.125Z,100171.63
2023-04-16T15:34:02.720Z,100175.95
2023-04-16T15:36:36.723Z,100177.62
2023-04-16T15:39:10.505Z,100180.25
2023-04-16T15:41:59.339Z,100179.44
2023-04-16T15:47:13.707Z,100165.43
2023-04-16T15:52:29.489Z,100176.65
2023-04-16T15:55:04.377Z,100179.87
2023-04-16T15:57:38.015Z,100180.61
2023-04-16T16:00:15.078Z,100169.14
2023-04-16T16:02:49.752Z,100179.75
2023-04-16T16:05:23.791Z,100173.64
2023-04-16T16:07:58.634Z,100186.84
2023-04-16T16:10:32.366Z,100177.13
2023-04-16T16:13:08.258Z,100173.47
2023-04-16T16:15:41.773Z,100176.01
2023-04-16T16:18:15.683Z,100181.16
2023-04-16T16:20:49.164Z,100182.79
2023-04-16T16:23:22.847Z,100176.69
2023-04-16T16:25:57.089Z,100186.27
2023-04-16T16:28:31.138Z,100180.16
2023-04-16T16:31:06.551Z,100183.62
2023-04-16T16:33:40.719Z,100166.00
2023-04-16T16:36:15.469Z,100181.77
2023-04-16T16:38:48.730Z,100173.06
2023-04-16T16:41:22.592Z,100177.38
2023-04-16T16:43:56.567Z,100171.19
2023-04-16T16:46:33.421Z,100184.23
2023-04-16T16:49:08.547Z,100185.03
2023-04-16T16:51:42.136Z,100183.18
2023-04-16T16:54:15.799Z,100184.92
2023-04-16T16:56:52.460Z,100182.14
2023-04-16T16:59:26.646Z,100181.25
2023-04-16T17:02:00.069Z,100181.19
2023-04-16T17:04:33.401Z,100181.99
2023-04-16T17:07:06.753Z,100180.18
2023-04-16T17:09:42.928Z,100174.00
2023-04-16T17:12:16.420Z,100184.48
2023-04-16T17:14:53.212Z,100177.41
2023-04-16T17:17:28.358Z,100167.72
2023-04-16T17:20:03.477Z,100178.11
2023-04-16T17:22:39.626Z,100177.16
2023-04-16T17:25:13.994Z,100177.09
2023-04-16T17:27:47.281Z,100182.22
2023-04-16T17:30:26.171Z,100176.06
2023-04-16T17:33:00.878Z,100176.97
2023-04-16T17:35:34.807Z,100180.42
2023-04-16T17:38:08.333Z,100177.66
2023-04-16T17:40:42.143Z,100176.69
2023-04-16T17:43:19.835Z,100178.30
2023-04-16T17:45:53.259Z,100177.34
2023-04-16T17:48:29.092Z,100173.84
2023-04-16T17:51:04.026Z,100175.53
2023-04-16T17:53:37.330Z,100176.34
2023-04-16T17:56:10.749Z,100176.30
2023-04-16T17:58:44.191Z,100171.94
2023-04-16T18:01:18.213Z,100178.87
2023-04-16T18:03:52.090Z,100174.52
2023-04-16T18:06:26.531Z,100172.75
2023-04-16T18:08:59.699Z,100165.74
2023-04-16T18:11:32.871Z,100169.26
2023-04-16T18:14:06.322Z,100170.92
2023-04-16T18:16:39.529Z,100170.84
2023-04-16T18:19:13.300Z,100168.20
2023-04-16T18:21:46.985Z,100163.82
2023-04-16T18:24:23.879Z,100170.83
2023-04-16T18:26:57.613Z,100166.44
2023-04-16T18:29:33.816Z,100169.03
2023-04-16T18:32:06.530Z,100163.76
2023-04-16T18:34:40.122Z,100160.20
2023-04-16T18:37:15.268Z,100160.22
2023-04-16T18:42:54.280Z,100155.27
2023-04-16T18:45:28.476Z,100160.34
2023-04-16T18:48:03.498Z,100154.20
2023-04-16T18:50:36.648Z,100147.25
2023-04-16T18:53:10.682Z,100153.31
2023-04-16T18:55:44.047Z,100154.14
2023-04-16T18:58:17.248Z,100152.37
2023-04-16T19:00:52.536Z,100160.27
2023-04-16T19:03:25.975Z,100151.52
2023-04-16T19:05:59.155Z,100138.44
2023-04-16T19:08:36.490Z,100147.12
2023-04-16T19:11:11.651Z,100145.34
2023-04-16T19:13:47.849Z,100146.22
2023-04-16T19:16:20.990Z,100147.02
2023-04-16T19:18:56.833Z,100098.63
2023-04-16T19:21:30.084Z,100146.16
2023-04-16T19:24:03.330Z,100138.28
2023-04-16T19:26:41.461Z,100148.75
2023-04-16T19:29:17.980Z,100141.63
2023-04-16T19:31:51.441Z,100145.03
2023-04-16T19:34:24.590Z,100145.86
2023-04-16T19:36:58.170Z,100151.06
2023-04-16T19:39:31.707Z,100150.95
2023-04-16T19:42:05.313Z,100143.90
2023-04-16T19:44:38.571Z,100142.11
2023-04-16T19:47:11.898Z,100142.93
2023-04-16T19:49:45.036Z,100141.12
2023-04-16T19:52:18.131Z,100146.27
2023-04-16T19:54:51.501Z,100154.03
2023-04-16T19:57:24.876Z,100151.32
2023-04-16T19:59:58.307Z,100156.50
2023-04-16T20:02:33.022Z,100152.09
2023-04-16T20:05:07.554Z,100152.09
2023-04-16T20:07:40.953Z,100155.55
2023-04-16T20:10:14.381Z,100154.64
2023-04-16T20:12:47.710Z,100146.78
2023-04-16T20:15:21.784Z,100157.19
2023-04-16T20:17:56.468Z,100151.03
2023-04-16T20:20:29.836Z,100151.91
2023-04-16T20:23:03.051Z,100154.52
2023-04-16T20:25:36.495Z,100149.23
2023-04-16T20:28:09.838Z,100155.37
2023-04-16T20:30:43.285Z,100148.42
2023-04-16T20:33:16.523Z,100152.83
2023-04-16T20:35:52.279Z,100151.09
2023-04-16T20:38:25.630Z,100144.07
2023-04-16T20:41:00.634Z,100144.91
2023-04-16T20:43:36.914Z,100149.23
2023-04-16T20:46:10.915Z,100145.78
2023-04-16T20:48:44.223Z,100152.73
2023-04-16T20:51:18.296Z,100148.34
2023-04-16T20:53:52.288Z,100150.05
2023-04-16T20:56:26.041Z,100149.14
2023-04-16T20:58:59.502Z,100142.19
2023-04-16T21:01:33.250Z,100136.89
2023-04-16T21:04:07.316Z,100136.80
2023-04-16T21:06:43.823Z,100135.91
2023-04-16T21:09:17.679Z,100142.73
2023-04-16T21:11:55.936Z,100138.27
2023-04-16T21:14:31.195Z,100141.67
2023-04-16T21:17:04.833Z,100138.98
2023-04-16T21:19:38.493Z,100138.87
2023-04-16T21:22:12.095Z,100136.17
2023-04-16T21:24:45.683Z,100133.45
2023-04-16T21:27:19.056Z,100140.35
2023-04-16T21:29:52.935Z,100135.10
2023-04-16T21:32:26.684Z,100144.66
2023-04-16T21:35:00.432Z,100141.08
2023-04-16T21:37:34.328Z,100143.64
2023-04-16T21:40:09.489Z,100149.67
2023-04-16T21:42:44.413Z,100146.13
2023-04-16T21:45:18.178Z,100149.61
2023-04-16T21:47:51.791Z,100151.34
2023-04-16T21:50:27.251Z,100149.58
2023-04-16T21:53:04.090Z,100157.38
2023-04-16T21:55:37.984Z,100155.61
2023-04-16T21:58:11.723Z,100151.17
2023-04-16T22:00:45.491Z,100156.33
2023-04-16T22:03:19.261Z,100156.23
2023-04-16T22:05:53.218Z,100157.02
2023-04-16T22:08:27.282Z,100143.03
2023-04-16T22:11:01.587Z,100147.36
2023-04-16T22:16:07.813Z,100149.34
2023-04-16T22:18:42.038Z,100156.05
2023-04-16T22:21:15.566Z,100143.91
2023-04-16T22:23:49.354Z,100150.84
2023-04-16T22:26:22.655Z,100150.84
2023-04-16T22:28:56.501Z,100159.53
2023-04-16T22:31:30.127Z,100149.00
2023-04-16T22:34:03.811Z,100149.03
2023-04-16T22:36:37.336Z,100147.23
2023-04-16T22:39:10.792Z,100155.97
2023-04-16T22:41:44.715Z,100149.84
2023-04-16T22:44:18.231Z,100154.22
2023-04-16T22:46:52.079Z,100146.42
2023-04-16T22:49:26.452Z,100149.91
2023-04-16T22:52:00.400Z,100151.64
2023-04-16T22:54:34.293Z,100155.19
2023-04-16T22:57:09.388Z,100145.59
2023-04-16T22:59:43.163Z,100149.97
2023-04-16T23:02:16.900Z,100149.03
2023-04-16T23:04:50.530Z,100147.30
2023-04-16T23:07:24.361Z,100146.39
2023-04-16T23:09:57.841Z,100149.91
2023-04-16T23:12:31.519Z,100150.80
2023-04-16T23:15:06.634Z,100140.34
2023-04-16T23:17:40.890Z,100153.41
2023-04-16T23:20:15.767Z,100150.77
2023-04-16T23:22:49.457Z,100144.69
2023-04-16T23:25:23.778Z,100137.70
2023-04-16T23:27:57.307Z,100132.48
2023-04-16T23:30:31.224Z,100135.09
2023-04-16T23:33:04.693Z,100134.16
2023-04-16T23:35:38.208Z,100129.77
2023-04-16T23:38:11.948Z,100127.17
2023-04-16T23:40:45.794Z,100127.23
2023-04-16T23:43:19.511Z,100135.87
2023-04-16T23:45:53.384Z,100126.23
2023-04-16T23:48:27.207Z,100128.78
2023-04-16T23:51:00.985Z,100133.94
2023-04-16T23:53:36.094Z,100133.00
2023-04-16T23:56:11.529Z,100131.20
2023-04-16T23:58:44.816Z,100126.80
